createdAt,value
2023-04-15T00:00:12.199Z,951.20
2023-04-15T00:00:42.640Z,951.20
2023-04-15T00:01:13.816Z,951.20
2023-04-15T00:01:44.436Z,951.40
2023-04-15T00:02:15.748Z,951.40
2023-04-15T00:02:47.183Z,951.40
2023-04-15T00:03:17.929Z,951.40
2023-04-15T00:03:48.733Z,951.30
2023-04-15T00:04:19.856Z,951.30
2023-04-15T00:04:52.198Z,951.40
2023-04-15T00:05:21.783Z,951.40
2023-04-15T00:05:54.695Z,951.00
2023-04-15T00:06:23.409Z,951.00
2023-04-15T00:06:55.675Z,951.20
2023-04-15T00:07:25.829Z,951.20
2023-04-15T00:07:56.773Z,951.30
2023-04-15T00:08:27.756Z,951.30
2023-04-15T00:08:58.573Z,951.40
2023-04-15T00:09:29.461Z,951.40
2023-04-15T00:10:00.876Z,951.20
2023-04-15T00:10:31.485Z,951.20
2023-04-15T00:11:02.508Z,951.30
2023-04-15T00:11:33.445Z,951.30
2023-04-15T00:12:04.657Z,951.30
2023-04-15T00:12:35.730Z,951.40
2023-04-15T00:13:06.561Z,951.40
2023-04-15T00:13:37.831Z,951.20
2023-04-15T00:14:08.908Z,951.20
2023-04-15T00:14:39.760Z,951.40
2023-04-15T00:15:11.372Z,951.40
2023-04-15T00:15:41.662Z,951.30
2023-04-15T00:16:12.673Z,951.30
2023-04-15T00:16:43.532Z,951.30
2023-04-15T00:17:14.423Z,951.30
2023-04-15T00:17:46.321Z,951.30
2023-04-15T00:18:16.471Z,951.30
2023-04-15T00:18:47.446Z,951.20
2023-04-15T00:19:18.420Z,951.20
2023-04-15T00:19:49.531Z,951.20
2023-04-15T00:20:20.875Z,951.20
2023-04-15T00:20:51.531Z,951.00
2023-04-15T00:21:22.629Z,951.00
2023-04-15T00:21:53.795Z,951.30
2023-04-15T00:22:24.515Z,951.30
2023-04-15T00:22:55.890Z,951.40
2023-04-15T00:23:26.485Z,951.40
2023-04-15T00:23:57.457Z,951.20
2023-04-15T00:24:28.454Z,951.20
2023-04-15T00:24:59.861Z,951.30
2023-04-15T00:25:30.785Z,951.30
2023-04-15T00:26:01.504Z,951.30
2023-04-15T00:26:32.657Z,951.30
2023-04-15T00:27:03.547Z,951.20
2023-04-15T00:27:34.534Z,951.20
2023-04-15T00:28:05.754Z,951.30
2023-04-15T00:28:36.466Z,951.20
2023-04-15T00:29:07.750Z,951.20
2023-04-15T00:29:38.875Z,951.30
2023-04-15T00:30:09.986Z,951.30
2023-04-15T00:30:40.706Z,951.20
2023-04-15T00:31:11.444Z,951.20
2023-04-15T00:31:42.634Z,951.10
2023-04-15T00:32:13.645Z,951.10
2023-04-15T00:32:44.442Z,951.20
2023-04-15T00:33:15.511Z,951.20
2023-04-15T00:33:46.829Z,951.40
2023-04-15T00:34:17.569Z,951.40
2023-04-15T00:34:48.640Z,951.20
2023-04-15T00:35:20.260Z,951.20
2023-04-15T00:35:50.546Z,951.20
2023-04-15T00:36:23.345Z,951.20
2023-04-15T00:36:52.810Z,951.20
2023-04-15T00:37:25.420Z,951.20
2023-04-15T00:37:54.715Z,951.20
2023-04-15T00:38:26.571Z,951.20
2023-04-15T00:38:56.540Z,951.20
2023-04-15T00:39:27.500Z,951.20
2023-04-15T00:39:58.495Z,951.30
2023-04-15T00:40:29.975Z,951.30
2023-04-15T00:41:00.558Z,951.10
2023-04-15T00:41:31.636Z,951.10
2023-04-15T00:42:02.540Z,951.10
2023-04-15T00:42:33.541Z,951.10
2023-04-15T00:43:04.718Z,951.00
2023-04-15T00:43:35.663Z,951.10
2023-04-15T00:44:06.752Z,951.10
2023-04-15T00:44:37.597Z,951.10
2023-04-15T00:45:09.306Z,951.10
2023-04-15T00:45:39.768Z,951.40
2023-04-15T00:46:10.909Z,951.40
2023-04-15T00:46:41.807Z,951.00
2023-04-15T00:47:12.817Z,951.00
2023-04-15T00:47:43.736Z,951.10
2023-04-15T00:48:15.135Z,951.10
2023-04-15T00:48:45.606Z,951.10
2023-04-15T00:49:16.610Z,951.10
2023-04-15T00:49:47.983Z,951.10
2023-04-15T00:50:19.007Z,951.10
2023-04-15T00:50:49.831Z,951.20
2023-04-15T00:51:20.611Z,951.20
2023-04-15T00:51:51.612Z,951.10
2023-04-15T00:52:22.580Z,951.10
2023-04-15T00:52:53.630Z,951.10
2023-04-15T00:53:24.950Z,951.10
2023-04-15T00:53:55.548Z,951.20
2023-04-15T00:54:26.851Z,951.20
2023-04-15T00:54:57.914Z,951.20
2023-04-15T00:55:29.085Z,951.20
2023-04-15T00:55:59.922Z,951.10
2023-04-15T00:56:30.582Z,951.10
2023-04-15T00:57:01.744Z,951.10
2023-04-15T00:57:33.010Z,951.10
2023-04-15T00:58:03.782Z,951.00
2023-04-15T00:58:35.044Z,951.00
2023-04-15T00:59:05.916Z,951.20
2023-04-15T00:59:36.827Z,951.10
2023-04-15T01:00:08.757Z,951.10
2023-04-15T01:00:38.714Z,951.10
2023-04-15T01:01:09.889Z,951.10
2023-04-15T01:01:40.734Z,951.00
2023-04-15T01:02:11.697Z,951.00
2023-04-15T01:02:42.723Z,951.00
2023-04-15T01:03:13.685Z,951.00
2023-04-15T01:03:44.979Z,951.30
2023-04-15T01:04:15.759Z,951.30
2023-04-15T01:04:46.730Z,951.10
2023-04-15T01:05:17.871Z,951.10
2023-04-15T01:05:48.573Z,951.10
2023-04-15T01:06:19.664Z,951.10
2023-04-15T01:06:50.866Z,951.10
2023-04-15T01:07:21.777Z,951.10
2023-04-15T01:07:53.714Z,951.00
2023-04-15T01:08:23.682Z,951.00
2023-04-15T01:08:56.606Z,951.10
2023-04-15T01:09:25.781Z,951.10
2023-04-15T01:09:57.837Z,951.00
2023-04-15T01:10:28.181Z,951.00
2023-04-15T01:10:58.724Z,950.90
2023-04-15T01:11:29.794Z,950.90
2023-04-15T01:12:01.010Z,951.20
2023-04-15T01:12:32.132Z,951.20
2023-04-15T01:13:03.289Z,950.90
2023-04-15T01:13:33.922Z,950.90
2023-04-15T01:14:04.984Z,951.00
2023-04-15T01:14:36.047Z,951.00
2023-04-15T01:15:07.373Z,951.00
2023-04-15T01:15:37.680Z,951.30
2023-04-15T01:16:08.770Z,951.30
2023-04-15T01:16:39.794Z,951.00
2023-04-15T01:17:10.882Z,951.00
2023-04-15T01:17:42.059Z,951.00
2023-04-15T01:18:12.952Z,951.00
2023-04-15T01:18:44.037Z,951.20
2023-04-15T01:19:14.996Z,951.20
2023-04-15T01:19:46.048Z,951.20
2023-04-15T01:20:17.564Z,951.20
2023-04-15T01:20:47.660Z,951.10
2023-04-15T01:21:18.750Z,951.10
2023-04-15T01:21:50.103Z,951.10
2023-04-15T01:22:20.689Z,951.10
2023-04-15T01:22:51.942Z,951.10
2023-04-15T01:23:23.300Z,951.10
2023-04-15T01:23:53.785Z,951.10
2023-04-15T01:24:24.734Z,951.10
2023-04-15T01:24:55.977Z,951.00
2023-04-15T01:25:27.262Z,951.00
2023-04-15T01:25:58.086Z,951.20
2023-04-15T01:26:28.771Z,951.20
2023-04-15T01:26:59.872Z,951.10
2023-04-15T01:27:30.732Z,951.10
2023-04-15T01:28:01.908Z,951.30
2023-04-15T01:28:32.934Z,951.30
2023-04-15T01:29:04.048Z,951.20
2023-04-15T01:29:35.140Z,951.20
2023-04-15T01:30:06.497Z,951.10
2023-04-15T01:30:36.798Z,951.20
2023-04-15T01:31:07.754Z,951.20
2023-04-15T01:31:38.744Z,951.00
2023-04-15T01:32:09.894Z,951.00
2023-04-15T01:32:41.059Z,951.10
2023-04-15T01:33:11.732Z,951.10
2023-04-15T01:33:42.736Z,951.10
2023-04-15T01:34:13.842Z,951.10
2023-04-15T01:34:44.972Z,951.00
2023-04-15T01:35:16.179Z,951.00
2023-04-15T01:35:47.053Z,951.00
2023-04-15T01:36:17.839Z,951.00
2023-04-15T01:36:48.769Z,951.10
2023-04-15T01:37:19.910Z,951.10
2023-04-15T01:37:51.047Z,951.00
2023-04-15T01:38:21.899Z,951.00
2023-04-15T01:38:53.056Z,951.20
2023-04-15T01:39:26.118Z,951.20
2023-04-15T01:39:54.982Z,951.10
2023-04-15T01:40:27.410Z,951.10
2023-04-15T01:40:56.758Z,951.20
2023-04-15T01:41:28.211Z,951.20
2023-04-15T01:41:58.771Z,951.10
2023-04-15T01:42:29.740Z,951.10
2023-04-15T01:43:01.085Z,951.00
2023-04-15T01:43:31.783Z,951.00
2023-04-15T01:44:02.800Z,950.90
2023-04-15T01:44:33.747Z,950.90
2023-04-15T01:45:05.363Z,951.00
2023-04-15T01:45:35.921Z,951.00
2023-04-15T01:46:07.031Z,951.00
2023-04-15T01:46:37.987Z,951.10
2023-04-15T01:47:08.896Z,951.10
2023-04-15T01:47:40.201Z,951.10
2023-04-15T01:48:11.134Z,951.10
2023-04-15T01:48:41.915Z,951.00
2023-04-15T01:49:12.783Z,951.00
2023-04-15T01:49:43.796Z,951.10
2023-04-15T01:50:15.037Z,951.10
2023-04-15T01:50:45.842Z,950.90
2023-04-15T01:51:17.047Z,950.90
2023-04-15T01:51:47.895Z,950.90
2023-04-15T01:52:18.803Z,950.90
2023-04-15T01:52:49.796Z,950.90
2023-04-15T01:53:20.796Z,950.90
2023-04-15T01:53:51.777Z,951.00
2023-04-15T01:54:23.184Z,951.00
2023-04-15T01:54:54.224Z,951.00
2023-04-15T01:55:25.515Z,951.00
2023-04-15T01:55:55.979Z,950.90
2023-04-15T01:56:26.962Z,950.90
2023-04-15T01:56:58.180Z,951.00
2023-04-15T01:57:29.205Z,951.00
2023-04-15T01:58:00.278Z,951.00
2023-04-15T01:58:31.177Z,951.00
2023-04-15T01:59:02.254Z,951.00
2023-04-15T01:59:32.859Z,951.00
2023-04-15T02:00:04.351Z,950.90
2023-04-15T02:00:35.335Z,950.90
2023-04-15T02:01:05.922Z,950.90
2023-04-15T02:01:36.915Z,951.00
2023-04-15T02:02:07.956Z,951.00
2023-04-15T02:02:39.088Z,951.10
2023-04-15T02:03:09.979Z,951.10
2023-04-15T02:03:41.281Z,951.00
2023-04-15T02:04:11.961Z,951.00
2023-04-15T02:04:42.898Z,950.90
2023-04-15T02:05:14.776Z,950.90
2023-04-15T02:05:44.835Z,951.00
2023-04-15T02:06:16.130Z,951.00
2023-04-15T02:06:47.213Z,951.00
2023-04-15T02:07:18.213Z,951.00
2023-04-15T02:07:48.848Z,951.00
2023-04-15T02:08:19.852Z,951.00
2023-04-15T02:08:51.232Z,950.69
2023-04-15T02:09:22.069Z,950.69
2023-04-15T02:09:53.216Z,950.90
2023-04-15T02:10:24.640Z,950.90
2023-04-15T02:10:56.934Z,951.10
2023-04-15T02:11:25.941Z,951.10
2023-04-15T02:11:58.630Z,950.90
2023-04-15T02:12:27.831Z,950.90
2023-04-15T02:13:00.223Z,951.00
2023-04-15T02:13:30.089Z,951.00
2023-04-15T02:14:00.880Z,950.79
2023-04-15T02:14:31.933Z,950.79
2023-04-15T02:15:04.370Z,951.00
2023-04-15T02:15:34.161Z,951.00
2023-04-15T02:16:04.923Z,951.10
2023-04-15T02:16:36.206Z,951.10
2023-04-15T02:17:07.095Z,951.10
2023-04-15T02:17:38.099Z,951.00
2023-04-15T02:18:08.997Z,951.00
2023-04-15T02:18:39.964Z,951.10
2023-04-15T02:19:11.324Z,951.10
2023-04-15T02:19:41.936Z,950.69
2023-04-15T02:20:13.011Z,950.69
2023-04-15T02:20:43.903Z,950.90
2023-04-15T02:21:14.918Z,950.90
2023-04-15T02:21:46.292Z,951.00
2023-04-15T02:22:17.458Z,951.00
2023-04-15T02:22:48.050Z,950.79
2023-04-15T02:23:19.077Z,950.79
2023-04-15T02:23:50.612Z,951.00
2023-04-15T02:24:20.932Z,951.00
2023-04-15T02:24:51.991Z,950.90
2023-04-15T02:25:23.128Z,950.90
2023-04-15T02:25:54.350Z,951.10
2023-04-15T02:26:24.994Z,951.10
2023-04-15T02:26:56.028Z,951.20
2023-04-15T02:27:27.303Z,951.20
2023-04-15T02:27:58.005Z,951.00
2023-04-15T02:28:28.890Z,951.00
2023-04-15T02:29:00.170Z,950.90
2023-04-15T02:29:31.412Z,950.90
2023-04-15T02:30:02.462Z,951.00
2023-04-15T02:30:33.364Z,951.00
2023-04-15T02:31:04.352Z,950.90
2023-04-15T02:31:35.350Z,950.90
2023-04-15T02:32:06.477Z,951.00
2023-04-15T02:32:37.248Z,951.00
2023-04-15T02:33:07.888Z,951.00
2023-04-15T02:33:39.227Z,950.79
2023-04-15T02:34:09.927Z,950.79
2023-04-15T02:34:40.993Z,951.00
2023-04-15T02:35:12.349Z,951.00
2023-04-15T02:35:42.966Z,950.79
2023-04-15T02:36:14.398Z,950.79
2023-04-15T02:36:45.303Z,951.00
2023-04-15T02:37:16.267Z,951.00
2023-04-15T02:37:47.366Z,950.90
2023-04-15T02:38:18.348Z,950.90
2023-04-15T02:38:48.923Z,951.00
2023-04-15T02:39:19.901Z,951.00
2023-04-15T02:39:51.198Z,950.90
2023-04-15T02:40:22.427Z,950.90
2023-04-15T02:40:53.499Z,950.79
2023-04-15T02:41:24.019Z,950.79
2023-04-15T02:41:55.088Z,951.10
2023-04-15T02:42:28.102Z,951.10
2023-04-15T02:42:57.419Z,950.90
2023-04-15T02:43:29.419Z,950.90
2023-04-15T02:43:59.405Z,951.10
2023-04-15T02:44:31.361Z,951.10
2023-04-15T02:45:01.439Z,951.00
2023-04-15T02:45:31.931Z,951.00
2023-04-15T02:46:03.311Z,951.00
2023-04-15T02:46:34.570Z,951.00
2023-04-15T02:47:04.933Z,951.10
2023-04-15T02:47:36.231Z,950.90
2023-04-15T02:48:07.045Z,950.90
2023-04-15T02:48:38.123Z,951.10
2023-04-15T02:49:08.997Z,951.10
2023-04-15T02:49:40.033Z,950.90
2023-04-15T02:50:11.261Z,950.90
2023-04-15T02:50:41.942Z,951.00
2023-04-15T02:51:13.465Z,951.00
2023-04-15T02:51:44.258Z,951.00
2023-04-15T02:52:15.598Z,951.00
2023-04-15T02:52:46.015Z,951.10
2023-04-15T02:53:16.966Z,951.10
2023-04-15T02:53:48.335Z,951.10
2023-04-15T02:54:18.988Z,951.10
2023-04-15T02:54:49.981Z,951.10
2023-04-15T02:55:21.460Z,951.10
2023-04-15T02:55:52.195Z,951.10
2023-04-15T02:56:23.217Z,951.10
2023-04-15T02:56:54.030Z,951.00
2023-04-15T02:57:24.978Z,951.00
2023-04-15T02:57:56.273Z,950.90
2023-04-15T02:58:27.367Z,950.90
2023-04-15T02:58:58.625Z,951.20
2023-04-15T02:59:29.060Z,951.20
2023-04-15T03:00:00.123Z,951.20
2023-04-15T03:00:31.867Z,951.20
2023-04-15T03:01:02.138Z,951.20
2023-04-15T03:01:33.723Z,951.20
2023-04-15T03:02:04.279Z,951.00
2023-04-15T03:02:35.060Z,951.00
2023-04-15T03:03:06.500Z,950.90
2023-04-15T03:03:37.076Z,951.10
2023-04-15T03:04:08.106Z,951.10
2023-04-15T03:04:39.389Z,950.90
2023-04-15T03:05:10.634Z,950.90
2023-04-15T03:05:41.774Z,950.90
2023-04-15T03:06:12.029Z,950.90
2023-04-15T03:06:43.053Z,951.20
2023-04-15T03:07:14.010Z,951.20
2023-04-15T03:07:45.028Z,951.20
2023-04-15T03:08:16.364Z,951.20
2023-04-15T03:08:47.453Z,950.90
2023-04-15T03:09:18.452Z,950.90
2023-04-15T03:09:49.548Z,951.10
2023-04-15T03:10:20.875Z,951.10
2023-04-15T03:10:51.483Z,951.10
2023-04-15T03:11:22.972Z,951.10
2023-04-15T03:11:53.457Z,951.00
2023-04-15T03:12:24.418Z,951.00
2023-04-15T03:12:55.075Z,950.90
2023-04-15T03:13:26.093Z,950.90
2023-04-15T03:13:59.091Z,950.90
2023-04-15T03:14:28.013Z,950.90
2023-04-15T03:14:59.507Z,950.79
2023-04-15T03:15:31.037Z,950.79
2023-04-15T03:16:02.297Z,951.30
2023-04-15T03:16:32.070Z,951.30
2023-04-15T03:17:03.127Z,951.00
2023-04-15T03:17:34.901Z,951.00
2023-04-15T03:18:05.433Z,950.90
2023-04-15T03:18:36.532Z,950.79
2023-04-15T03:19:07.506Z,950.79
2023-04-15T03:19:38.357Z,950.90
2023-04-15T03:20:09.361Z,950.90
2023-04-15T03:20:40.270Z,951.10
2023-04-15T03:21:11.262Z,951.10
2023-04-15T03:21:42.163Z,951.00
2023-04-15T03:22:13.424Z,951.00
2023-04-15T03:22:44.684Z,950.90
2023-04-15T03:23:15.085Z,950.90
2023-04-15T03:23:46.135Z,951.00
2023-04-15T03:24:17.552Z,951.00
2023-04-15T03:24:48.855Z,950.90
2023-04-15T03:25:19.840Z,950.90
2023-04-15T03:25:50.291Z,950.90
2023-04-15T03:26:21.528Z,950.90
2023-04-15T03:26:52.188Z,951.00
2023-04-15T03:27:23.145Z,951.00
2023-04-15T03:27:54.146Z,951.20
2023-04-15T03:28:25.257Z,951.20
2023-04-15T03:28:56.298Z,951.10
2023-04-15T03:29:27.503Z,951.10
2023-04-15T03:29:58.573Z,950.90
2023-04-15T03:30:29.785Z,950.90
2023-04-15T03:31:00.577Z,950.90
2023-04-15T03:31:31.536Z,950.90
2023-04-15T03:32:02.204Z,951.00
2023-04-15T03:32:33.214Z,951.00
2023-04-15T03:33:04.265Z,951.00
2023-04-15T03:33:35.339Z,951.00
2023-04-15T03:34:06.523Z,951.10
2023-04-15T03:34:37.239Z,950.90
2023-04-15T03:35:08.434Z,950.90
2023-04-15T03:35:39.470Z,951.10
2023-04-15T03:36:10.475Z,951.10
2023-04-15T03:36:41.435Z,951.00
2023-04-15T03:37:12.200Z,951.00
2023-04-15T03:37:43.189Z,951.10
2023-04-15T03:38:14.194Z,951.10
2023-04-15T03:38:45.649Z,950.90
2023-04-15T03:39:16.120Z,950.90
2023-04-15T03:39:47.164Z,950.90
2023-04-15T03:40:18.836Z,950.90
2023-04-15T03:40:49.626Z,951.10
2023-04-15T03:41:20.158Z,951.10
2023-04-15T03:41:51.550Z,951.10
2023-04-15T03:42:22.306Z,951.10
2023-04-15T03:42:53.447Z,951.10
2023-04-15T03:43:24.296Z,951.10
2023-04-15T03:43:55.555Z,950.90
2023-04-15T03:44:26.219Z,950.90
2023-04-15T03:44:57.298Z,950.79
2023-04-15T03:45:31.313Z,950.79
2023-04-15T03:46:01.831Z,951.00
2023-04-15T03:46:32.566Z,951.00
2023-04-15T03:47:01.521Z,951.10
2023-04-15T03:47:33.547Z,951.10
2023-04-15T03:48:16.493Z,951.00
2023-04-15T03:48:34.296Z,951.00
2023-04-15T03:49:05.219Z,951.00
2023-04-15T03:49:36.307Z,951.00
2023-04-15T03:50:07.477Z,951.00
2023-04-15T03:50:38.194Z,950.69
2023-04-15T03:51:09.460Z,950.69
2023-04-15T03:51:40.194Z,950.79
2023-04-15T03:52:11.213Z,950.79
2023-04-15T03:52:42.238Z,950.90
2023-04-15T03:53:13.215Z,950.90
2023-04-15T03:53:44.518Z,950.79
2023-04-15T03:54:15.239Z,950.79
2023-04-15T03:54:46.520Z,951.00
2023-04-15T03:55:17.695Z,951.00
2023-04-15T03:55:48.602Z,951.10
2023-04-15T03:56:19.746Z,951.10
2023-04-15T03:56:50.183Z,950.90
2023-04-15T03:57:21.632Z,950.90
2023-04-15T03:57:52.432Z,950.79
2023-04-15T03:58:23.267Z,950.79
2023-04-15T03:58:54.384Z,950.90
2023-04-15T03:59:25.375Z,950.90
2023-04-15T03:59:56.676Z,951.10
2023-04-15T04:00:27.793Z,951.10
2023-04-15T04:00:58.230Z,950.90
2023-04-15T04:01:29.250Z,950.90
2023-04-15T04:02:00.344Z,950.79
2023-04-15T04:02:31.349Z,950.79
2023-04-15T04:03:02.406Z,951.00
2023-04-15T04:03:33.487Z,951.00
2023-04-15T04:04:04.331Z,951.00
2023-04-15T04:04:35.869Z,951.00
2023-04-15T04:05:06.535Z,950.90
2023-04-15T04:05:37.717Z,950.90
2023-04-15T04:06:08.356Z,950.90
2023-04-15T04:06:39.272Z,950.79
2023-04-15T04:07:10.608Z,950.79
2023-04-15T04:07:41.344Z,950.79
2023-04-15T04:08:12.271Z,950.79
2023-04-15T04:08:43.382Z,951.10
2023-04-15T04:09:14.532Z,951.10
2023-04-15T04:09:46.733Z,950.90
2023-04-15T04:10:16.646Z,950.90
2023-04-15T04:10:47.487Z,951.00
2023-04-15T04:11:18.241Z,951.00
2023-04-15T04:11:49.258Z,951.10
2023-04-15T04:12:20.303Z,951.10
2023-04-15T04:12:51.402Z,950.79
2023-04-15T04:13:22.313Z,950.79
2023-04-15T04:13:53.553Z,951.00
2023-04-15T04:14:24.260Z,951.00
2023-04-15T04:14:55.614Z,951.20
2023-04-15T04:15:27.174Z,951.20
2023-04-15T04:15:57.364Z,950.79
2023-04-15T04:16:28.879Z,950.79
2023-04-15T04:17:01.586Z,950.90
2023-04-15T04:17:30.278Z,950.90
2023-04-15T04:18:02.453Z,950.79
2023-04-15T04:18:32.510Z,950.79
2023-04-15T04:19:04.493Z,950.90
2023-04-15T04:19:34.388Z,950.90
2023-04-15T04:20:05.531Z,951.00
2023-04-15T04:20:36.402Z,950.90
2023-04-15T04:21:07.661Z,950.90
2023-04-15T04:21:38.570Z,950.90
2023-04-15T04:22:09.354Z,950.90
2023-04-15T04:22:40.424Z,950.90
2023-04-15T04:23:11.643Z,950.90
2023-04-15T04:23:42.323Z,951.00
2023-04-15T04:24:13.568Z,951.00
2023-04-15T04:24:44.621Z,951.10
2023-04-15T04:25:15.579Z,951.10
2023-04-15T04:25:46.288Z,951.00
2023-04-15T04:26:17.336Z,951.00
2023-04-15T04:26:48.577Z,951.00
2023-04-15T04:27:19.742Z,951.00
2023-04-15T04:27:50.796Z,951.00
2023-04-15T04:28:21.296Z,951.00
2023-04-15T04:28:52.697Z,951.10
2023-04-15T04:29:23.337Z,951.10
2023-04-15T04:29:54.303Z,951.10
2023-04-15T04:30:26.199Z,951.10
2023-04-15T04:30:56.474Z,951.00
2023-04-15T04:31:27.682Z,951.00
2023-04-15T04:31:58.432Z,950.90
2023-04-15T04:32:29.377Z,950.90
2023-04-15T04:33:00.647Z,951.20
2023-04-15T04:33:31.701Z,951.20
2023-04-15T04:34:02.399Z,951.10
2023-04-15T04:34:33.394Z,951.10
2023-04-15T04:35:04.766Z,951.00
2023-04-15T04:35:36.536Z,951.00
2023-04-15T04:36:06.584Z,950.90
2023-04-15T04:36:37.671Z,951.20
2023-04-15T04:37:08.449Z,951.20
2023-04-15T04:37:39.459Z,951.10
2023-04-15T04:38:10.419Z,951.10
2023-04-15T04:38:41.393Z,950.90
2023-04-15T04:39:12.376Z,950.90
2023-04-15T04:39:43.468Z,951.20
2023-04-15T04:40:15.045Z,951.20
2023-04-15T04:40:46.036Z,951.10
2023-04-15T04:41:16.549Z,951.10
2023-04-15T04:41:47.962Z,951.30
2023-04-15T04:42:18.612Z,951.30
2023-04-15T04:42:49.729Z,950.90
2023-04-15T04:43:20.384Z,950.90
2023-04-15T04:43:51.789Z,951.00
2023-04-15T04:44:22.410Z,951.00
2023-04-15T04:44:53.416Z,951.10
2023-04-15T04:45:25.202Z,951.10
2023-04-15T04:45:56.091Z,951.30
2023-04-15T04:46:26.558Z,951.30
2023-04-15T04:46:57.663Z,951.20
2023-04-15T04:47:28.447Z,951.20
2023-04-15T04:47:59.457Z,951.10
2023-04-15T04:48:32.788Z,951.10
2023-04-15T04:49:01.792Z,950.90
2023-04-15T04:49:33.789Z,950.90
2023-04-15T04:50:03.906Z,951.20
2023-04-15T04:50:36.900Z,951.30
2023-04-15T04:51:05.727Z,951.30
2023-04-15T04:51:36.567Z,951.00
2023-04-15T04:52:07.644Z,951.00
2023-04-15T04:52:38.794Z,951.20
2023-04-15T04:53:09.820Z,951.20
2023-04-15T04:53:40.401Z,951.20
2023-04-15T04:54:11.457Z,951.20
2023-04-15T04:54:42.491Z,951.10
2023-04-15T04:55:13.924Z,951.10
2023-04-15T04:55:44.644Z,951.10
2023-04-15T04:56:15.841Z,951.10
2023-04-15T04:56:46.690Z,951.10
2023-04-15T04:57:17.507Z,951.10
2023-04-15T04:57:48.785Z,951.30
2023-04-15T04:58:19.512Z,951.30
2023-04-15T04:58:50.874Z,951.10
2023-04-15T04:59:21.854Z,951.10
2023-04-15T04:59:52.475Z,951.30
2023-04-15T05:00:24.513Z,951.30
2023-04-15T05:00:55.387Z,951.10
2023-04-15T05:01:25.966Z,951.10
2023-04-15T05:01:57.236Z,951.20
2023-04-15T05:02:28.116Z,951.20
2023-04-15T05:02:58.646Z,951.40
2023-04-15T05:03:29.942Z,951.40
2023-04-15T05:04:00.790Z,951.20
2023-04-15T05:04:31.855Z,951.20
2023-04-15T05:05:02.626Z,951.10
2023-04-15T05:05:34.300Z,951.10
2023-04-15T05:06:05.050Z,951.40
2023-04-15T05:06:35.409Z,951.40
2023-04-15T05:07:06.684Z,951.20
2023-04-15T05:07:37.858Z,951.20
2023-04-15T05:08:08.942Z,951.20
2023-04-15T05:08:40.415Z,951.10
2023-04-15T05:09:10.908Z,951.10
2023-04-15T05:09:41.518Z,951.10
2023-04-15T05:10:13.279Z,951.10
2023-04-15T05:10:43.971Z,951.30
2023-04-15T05:11:14.618Z,951.30
2023-04-15T05:11:45.489Z,951.10
2023-04-15T05:12:16.720Z,951.10
2023-04-15T05:12:47.508Z,951.30
2023-04-15T05:13:19.145Z,951.30
2023-04-15T05:13:49.913Z,951.10
2023-04-15T05:14:22.872Z,951.10
2023-04-15T05:14:51.725Z,951.20
2023-04-15T05:15:23.319Z,951.20
2023-04-15T05:15:53.866Z,951.00
2023-04-15T05:16:25.234Z,951.00
2023-04-15T05:16:55.569Z,951.10
2023-04-15T05:17:26.664Z,951.10
2023-04-15T05:17:57.533Z,951.30
2023-04-15T05:18:28.797Z,951.30
2023-04-15T05:18:59.904Z,951.40
2023-04-15T05:19:30.880Z,951.40
2023-04-15T05:20:02.991Z,951.40
2023-04-15T05:20:32.943Z,951.40
2023-04-15T05:21:04.822Z,951.40
2023-04-15T05:21:34.626Z,951.40
2023-04-15T05:22:05.542Z,951.10
2023-04-15T05:22:36.869Z,951.40
2023-04-15T05:23:07.880Z,951.40
2023-04-15T05:23:38.563Z,951.30
2023-04-15T05:24:09.877Z,951.30
2023-04-15T05:24:40.607Z,951.40
2023-04-15T05:25:12.151Z,951.40
2023-04-15T05:25:42.691Z,951.40
2023-04-15T05:26:13.812Z,951.40
2023-04-15T05:26:44.813Z,951.51
2023-04-15T05:27:15.604Z,951.51
2023-04-15T05:27:46.686Z,951.51
2023-04-15T05:28:17.712Z,951.51
2023-04-15T05:28:48.669Z,951.40
2023-04-15T05:29:19.604Z,951.40
2023-04-15T05:29:50.716Z,951.61
2023-04-15T05:30:22.301Z,951.61
2023-04-15T05:30:52.911Z,951.40
2023-04-15T05:31:23.892Z,951.40
2023-04-15T05:31:54.595Z,951.61
2023-04-15T05:32:25.651Z,951.61
2023-04-15T05:32:56.868Z,951.40
2023-04-15T05:33:27.759Z,951.40
2023-04-15T05:33:58.617Z,951.30
2023-04-15T05:34:29.535Z,951.30
2023-04-15T05:35:00.736Z,951.40
2023-04-15T05:35:31.859Z,951.40
2023-04-15T05:36:02.600Z,951.40
2023-04-15T05:36:33.647Z,951.40
2023-04-15T05:37:04.829Z,951.40
2023-04-15T05:37:35.733Z,951.40
2023-04-15T05:38:06.558Z,951.71
2023-04-15T05:38:37.620Z,951.61
2023-04-15T05:39:08.846Z,951.61
2023-04-15T05:39:39.903Z,951.30
2023-04-15T05:40:11.088Z,951.30
2023-04-15T05:40:41.977Z,951.40
2023-04-15T05:41:12.731Z,951.40
2023-04-15T05:41:43.666Z,951.40
2023-04-15T05:42:14.674Z,951.40
2023-04-15T05:42:45.831Z,951.40
2023-04-15T05:43:16.844Z,951.40
2023-04-15T05:43:47.602Z,951.40
2023-04-15T05:44:18.658Z,951.40
2023-04-15T05:44:49.681Z,951.40
2023-04-15T05:45:21.570Z,951.40
2023-04-15T05:45:51.671Z,951.51
2023-04-15T05:46:22.742Z,951.51
2023-04-15T05:46:53.660Z,951.61
2023-04-15T05:47:24.616Z,951.61
2023-04-15T05:47:55.806Z,951.40
2023-04-15T05:48:26.643Z,951.40
2023-04-15T05:48:57.670Z,951.51
2023-04-15T05:49:28.906Z,951.51
2023-04-15T05:49:59.685Z,951.61
2023-04-15T05:50:31.322Z,951.61
2023-04-15T05:51:01.675Z,951.51
2023-04-15T05:51:33.569Z,951.51
2023-04-15T05:52:03.975Z,951.71
2023-04-15T05:52:36.561Z,951.71
2023-04-15T05:53:05.684Z,951.61
2023-04-15T05:53:37.310Z,951.40
2023-04-15T05:54:07.707Z,951.40
2023-04-15T05:54:39.048Z,951.61
2023-04-15T05:55:10.201Z,951.61
2023-04-15T05:55:41.299Z,951.51
2023-04-15T05:56:11.869Z,951.51
2023-04-15T05:56:42.630Z,951.40
2023-04-15T05:57:13.860Z,951.40
2023-04-15T05:57:44.699Z,951.51
2023-04-15T05:58:15.642Z,951.51
2023-04-15T05:58:46.709Z,951.40
2023-04-15T05:59:17.734Z,951.40
2023-04-15T05:59:49.010Z,951.51
2023-04-15T06:00:20.880Z,951.51
2023-04-15T06:00:51.030Z,951.61
2023-04-15T06:01:21.679Z,951.61
2023-04-15T06:01:52.889Z,951.30
2023-04-15T06:02:24.192Z,951.30
2023-04-15T06:02:55.102Z,951.30
2023-04-15T06:03:25.944Z,951.30
2023-04-15T06:03:56.850Z,951.40
2023-04-15T06:04:27.787Z,951.40
2023-04-15T06:04:58.936Z,951.71
2023-04-15T06:05:30.236Z,951.71
2023-04-15T06:06:00.765Z,951.40
2023-04-15T06:06:31.806Z,951.40
2023-04-15T06:07:03.258Z,951.51
2023-04-15T06:07:33.798Z,951.51
2023-04-15T06:08:04.814Z,951.61
2023-04-15T06:08:35.841Z,951.61
2023-04-15T06:09:07.056Z,951.51
2023-04-15T06:09:37.748Z,951.51
2023-04-15T06:10:09.227Z,951.51
2023-04-15T06:10:39.669Z,951.40
2023-04-15T06:11:10.740Z,951.40
2023-04-15T06:11:41.816Z,951.51
2023-04-15T06:12:12.900Z,951.51
2023-04-15T06:12:43.819Z,951.51
2023-04-15T06:13:14.698Z,951.51
2023-04-15T06:13:45.744Z,951.61
2023-04-15T06:14:16.811Z,951.61
2023-04-15T06:14:47.744Z,951.61
2023-04-15T06:15:19.640Z,951.61
2023-04-15T06:15:49.804Z,951.51
2023-04-15T06:16:21.276Z,951.51
2023-04-15T06:16:51.951Z,951.51
2023-04-15T06:17:23.208Z,951.51
2023-04-15T06:17:54.180Z,951.51
2023-04-15T06:18:25.002Z,951.51
2023-04-15T06:18:56.076Z,951.51
2023-04-15T06:19:27.190Z,951.51
2023-04-15T06:19:58.325Z,951.51
2023-04-15T06:20:29.245Z,951.51
2023-04-15T06:20:59.841Z,951.51
2023-04-15T06:21:30.767Z,951.51
2023-04-15T06:22:01.780Z,951.40
2023-04-15T06:22:32.960Z,951.40
2023-04-15T06:23:06.218Z,951.51
2023-04-15T06:23:35.073Z,951.51
2023-04-15T06:24:08.401Z,951.40
2023-04-15T06:24:36.809Z,951.51
2023-04-15T06:25:08.392Z,951.51
2023-04-15T06:25:38.782Z,951.51
2023-04-15T06:26:10.185Z,951.51
2023-04-15T06:26:41.033Z,951.51